Time;durP1;ratioP1;P1;durP2;ratioP2;P2;SDS_P1;SDS_P2;PMS_P1;PMS_P2;Temp;Humidity;BMP_temperature;BMP_pressure;BME280_temperature;BME280_humidity;BME280_pressure;Samples;Min_cycle;Max_cycle;Signal;HPM_P1;HPM_P2
2022/10/27 00:00:13;;;;;;;55.97;25.77;;;;;;;;;;5052447;28;20048;-73
2022/10/27 00:03:21;;;;;;;58.13;25.98;;;;;;;;;;5052760;28;20449;-74
2022/10/27 00:06:25;;;;;;;57.65;30.98;;;;;;;;;;5052231;28;20052;-74
2022/10/27 00:09:30;;;;;;;67.93;29.58;;;;;;;;;;5052286;28;20219;-73
2022/10/27 00:12:34;;;;;;;71.35;28.48;;;;;;;;;;5051721;28;20044;-74
2022/10/27 00:15:39;;;;;;;67.25;30.42;;;;;;;;;;5052094;28;20044;-73
2022/10/27 00:18:44;;;;;;;58.05;28.65;;;;;;;;;;5051295;28;20524;-74
2022/10/27 00:21:50;;;;;;;64.72;30.55;;;;;;;;;;5051376;28;20048;-73
2022/10/27 00:24:54;;;;;;;66.85;31.23;;;;;;;;;;5052354;28;20039;-74
2022/10/27 00:27:58;;;;;;;66.55;30.05;;;;;;;;;;5051876;28;20036;-74
2022/10/27 00:31:04;;;;;;;69.28;30.73;;;;;;;;;;5051631;28;20060;-73
2022/10/27 00:34:09;;;;;;;58.75;28.63;;;;;;;;;;5052120;28;20393;-73
2022/10/27 00:37:13;;;;;;;59.88;28.15;;;;;;;;;;5051504;28;20047;-73
2022/10/27 00:40:17;;;;;;;52.53;26.45;;;;;;;;;;5051597;28;20048;-74
2022/10/27 00:43:41;;;;;;;48.95;26.45;;;;;;;;;;5050746;28;20044;-73
2022/10/27 00:46:46;;;;;;;62.95;29.20;;;;;;;;;;5051452;28;20043;-74
2022/10/27 00:49:59;;;;;;;59.50;29.45;;;;;;;;;;5052093;28;20056;-74
2022/10/27 00:53:03;;;;;;;70.40;31.52;;;;;;;;;;5051817;28;20507;-73
2022/10/27 00:56:07;;;;;;;70.13;30.38;;;;;;;;;;5051265;28;20052;-74
2022/10/27 00:59:12;;;;;;;56.10;26.48;;;;;;;;;;5050510;28;20052;-73
2022/10/27 01:02:16;;;;;;;53.38;25.38;;;;;;;;;;5051294;28;20044;-73
2022/10/27 01:05:24;;;;;;;60.22;25.80;;;;;;;;;;5051258;28;20397;-74
2022/10/27 01:08:29;;;;;;;56.17;27.05;;;;;;;;;;5050253;28;20040;-74
2022/10/27 01:11:33;;;;;;;62.70;26.90;;;;;;;;;;5051317;28;20377;-74
2022/10/27 01:14:38;;;;;;;58.13;28.58;;;;;;;;;;5051370;28;20147;-74
2022/10/27 01:17:42;;;;;;;64.55;28.23;;;;;;;;;;5050928;28;20408;-73
2022/10/27 01:20:49;;;;;;;60.90;28.17;;;;;;;;;;5051173;28;20035;-74
2022/10/27 01:23:57;;;;;;;59.85;26.48;;;;;;;;;;5050572;28;20043;-74
2022/10/27 01:27:28;;;;;;;59.25;26.33;;;;;;;;;;5050921;28;20048;-74
2022/10/27 01:30:35;;;;;;;54.45;26.90;;;;;;;;;;5050725;28;20508;-74
2022/10/27 01:34:12;;;;;;;52.70;26.80;;;;;;;;;;5050857;28;20056;-74
2022/10/27 01:37:16;;;;;;;58.30;27.40;;;;;;;;;;5038514;28;20500;-74
2022/10/27 01:40:23;;;;;;;60.95;29.23;;;;;;;;;;5051002;28;20393;-74
2022/10/27 01:43:29;;;;;;;53.88;25.60;;;;;;;;;;5051069;28;20048;-74
2022/10/27 01:46:33;;;;;;;57.55;26.42;;;;;;;;;;5050998;28;20040;-74
2022/10/27 01:49:39;;;;;;;56.45;25.92;;;;;;;;;;5050783;28;20048;-74
2022/10/27 01:52:43;;;;;;;48.88;26.83;;;;;;;;;;5051043;28;20393;-74
2022/10/27 01:56:00;;;;;;;55.08;27.40;;;;;;;;;;5050599;28;20040;-74
2022/10/27 01:59:23;;;;;;;57.55;27.35;;;;;;;;;;5050748;28;20048;-74
2022/10/27 02:02:36;;;;;;;55.35;25.35;;;;;;;;;;5050797;28;20511;-74
2022/10/27 02:05:50;;;;;;;54.90;25.15;;;;;;;;;;5050541;28;20058;-74
2022/10/27 02:08:58;;;;;;;63.08;25.90;;;;;;;;;;5049746;28;20056;-74
2022/10/27 02:12:03;;;;;;;64.22;27.45;;;;;;;;;;5050653;28;20048;-74
2022/10/27 02:15:17;;;;;;;87.95;32.08;;;;;;;;;;5050694;28;20044;-74
2022/10/27 02:18:24;;;;;;;204.02;37.28;;;;;;;;;;5050618;28;20396;-74
2022/10/27 02:21:29;;;;;;;162.60;39.33;;;;;;;;;;5050358;28;20310;-74
2022/10/27 02:24:34;;;;;;;110.43;39.03;;;;;;;;;;5050459;28;20409;-73
2022/10/27 02:27:42;;;;;;;202.30;41.40;;;;;;;;;;5050087;28;20055;-73
2022/10/27 02:30:46;;;;;;;167.40;42.33;;;;;;;;;;5050122;28;20056;-72
2022/10/27 02:33:51;;;;;;;129.73;41.97;;;;;;;;;;5050302;28;20040;-72
2022/10/27 02:36:55;;;;;;;108.07;43.25;;;;;;;;;;5052001;28;20396;-72
2022/10/27 02:40:00;;;;;;;153.38;43.20;;;;;;;;;;5053701;28;20056;-73
2022/10/27 02:43:04;;;;;;;131.20;42.50;;;;;;;;;;5053872;28;20450;-72
2022/10/27 02:46:08;;;;;;;121.20;42.50;;;;;;;;;;5054062;28;20048;-72
2022/10/27 02:49:12;;;;;;;147.88;44.75;;;;;;;;;;5053737;28;20056;-73
2022/10/27 02:52:17;;;;;;;259.52;46.42;;;;;;;;;;5054004;28;20052;-73
2022/10/27 02:55:21;;;;;;;208.02;44.28;;;;;;;;;;5053601;28;20040;-72
2022/10/27 02:58:25;;;;;;;214.20;43.28;;;;;;;;;;5053510;28;20108;-72
2022/10/27 03:01:29;;;;;;;155.40;42.33;;;;;;;;;;5052931;28;20484;-73
2022/10/27 03:04:34;;;;;;;190.68;42.15;;;;;;;;;;5053434;28;20396;-72
2022/10/27 03:07:38;;;;;;;115.78;39.60;;;;;;;;;;5053369;28;20040;-72
2022/10/27 03:10:43;;;;;;;97.80;39.90;;;;;;;;;;5053391;28;20425;-72
2022/10/27 03:13:47;;;;;;;126.05;41.97;;;;;;;;;;5053652;28;20388;-73
2022/10/27 03:16:52;;;;;;;241.88;41.65;;;;;;;;;;5053338;28;20040;-72
2022/10/27 03:19:56;;;;;;;130.20;40.50;;;;;;;;;;5053177;28;20396;-73
2022/10/27 03:23:00;;;;;;;96.05;37.15;;;;;;;;;;5053476;28;20036;-73
2022/10/27 03:26:04;;;;;;;150.07;40.10;;;;;;;;;;5053276;28;20052;-72
2022/10/27 03:29:09;;;;;;;203.55;41.47;;;;;;;;;;5053280;28;20401;-72
2022/10/27 03:32:13;;;;;;;151.27;39.30;;;;;;;;;;5052822;28;20059;-72
2022/10/27 03:35:18;;;;;;;181.82;39.00;;;;;;;;;;5052914;28;20397;-72
2022/10/27 03:38:22;;;;;;;266.45;39.83;;;;;;;;;;5053157;28;20044;-72
2022/10/27 03:41:27;;;;;;;217.98;40.65;;;;;;;;;;5053140;28;20056;-72
2022/10/27 03:44:31;;;;;;;244.45;40.92;;;;;;;;;;5052900;28;20055;-73
2022/10/27 03:47:36;;;;;;;196.10;39.63;;;;;;;;;;5052368;28;20048;-73
2022/10/27 03:50:44;;;;;;;143.18;40.10;;;;;;;;;;5052678;28;20056;-72
2022/10/27 03:53:48;;;;;;;116.78;38.25;;;;;;;;;;5052747;28;20496;-73
2022/10/27 03:56:53;;;;;;;131.05;36.83;;;;;;;;;;5052957;28;20048;-73
2022/10/27 03:59:57;;;;;;;147.52;37.53;;;;;;;;;;5052540;28;20044;-73
2022/10/27 04:03:01;;;;;;;88.80;36.45;;;;;;;;;;5052301;28;20043;-73
2022/10/27 04:06:06;;;;;;;128.95;36.22;;;;;;;;;;5052441;28;20044;-74
2022/10/27 04:09:10;;;;;;;85.55;36.08;;;;;;;;;;5052070;28;20048;-74
2022/10/27 04:12:14;;;;;;;133.05;37.20;;;;;;;;;;5052367;28;20047;-74
2022/10/27 04:15:19;;;;;;;65.93;34.20;;;;;;;;;;5051206;28;20044;-74
2022/10/27 04:18:23;;;;;;;84.72;33.20;;;;;;;;;;5052005;28;20496;-74
2022/10/27 04:21:28;;;;;;;77.15;32.90;;;;;;;;;;5052254;28;20044;-74
2022/10/27 04:24:32;;;;;;;55.55;30.70;;;;;;;;;;5052052;28;20047;-74
2022/10/27 04:27:36;;;;;;;55.95;31.17;;;;;;;;;;5051760;28;20040;-74
2022/10/27 04:30:41;;;;;;;67.80;32.72;;;;;;;;;;5051395;28;20060;-74
2022/10/27 04:33:45;;;;;;;85.53;31.63;;;;;;;;;;5051618;28;20546;-74
2022/10/27 04:36:49;;;;;;;84.88;32.40;;;;;;;;;;5051793;28;20056;-74
2022/10/27 04:39:54;;;;;;;68.47;31.30;;;;;;;;;;5051843;28;20044;-74
2022/10/27 04:42:58;;;;;;;49.50;30.60;;;;;;;;;;5050574;28;20396;-74
2022/10/27 04:46:02;;;;;;;52.70;29.73;;;;;;;;;;5051699;28;20095;-74
2022/10/27 04:49:07;;;;;;;55.20;30.08;;;;;;;;;;5051335;28;20056;-74
2022/10/27 04:52:12;;;;;;;46.00;29.63;;;;;;;;;;5051458;28;20052;-74
2022/10/27 04:55:16;;;;;;;52.53;31.33;;;;;;;;;;5051294;28;20036;-74
2022/10/27 04:58:20;;;;;;;47.88;30.60;;;;;;;;;;5062177;28;20100;-74
2022/10/27 05:01:25;;;;;;;47.33;29.27;;;;;;;;;;5050447;28;20048;-74
2022/10/27 05:04:29;;;;;;;46.55;29.63;;;;;;;;;;5051541;28;20059;-74
2022/10/27 05:07:33;;;;;;;51.75;31.20;;;;;;;;;;5051274;28;20052;-72
2022/10/27 05:10:38;;;;;;;47.95;29.20;;;;;;;;;;5051014;28;20052;-72
2022/10/27 05:13:42;;;;;;;119.75;29.90;;;;;;;;;;5051319;28;20036;-72
2022/10/27 05:16:46;;;;;;;53.05;29.80;;;;;;;;;;5050761;28;20044;-73
2022/10/27 05:19:51;;;;;;;79.75;27.48;;;;;;;;;;5050926;28;20549;-71
2022/10/27 05:22:55;;;;;;;39.92;27.27;;;;;;;;;;5050911;28;20040;-71
2022/10/27 05:26:00;;;;;;;46.35;26.08;;;;;;;;;;5050726;28;20496;-72
2022/10/27 05:29:04;;;;;;;72.63;26.48;;;;;;;;;;5050141;28;20413;-71
2022/10/27 05:32:09;;;;;;;37.65;27.65;;;;;;;;;;5050841;28;20075;-71
2022/10/27 05:35:13;;;;;;;41.80;26.52;;;;;;;;;;5050893;28;20048;-72
2022/10/27 05:38:17;;;;;;;47.03;27.95;;;;;;;;;;5050633;28;20052;-73
2022/10/27 05:41:22;;;;;;;64.55;30.40;;;;;;;;;;5050717;28;20123;-71
2022/10/27 05:44:26;;;;;;;294.05;30.73;;;;;;;;;;5050976;28;20378;-72
2022/10/27 05:47:30;;;;;;;119.68;30.05;;;;;;;;;;5049639;28;20044;-72
2022/10/27 05:50:35;;;;;;;40.22;26.35;;;;;;;;;;5050544;28;20064;-72
2022/10/27 05:53:40;;;;;;;31.63;23.58;;;;;;;;;;5061388;28;20048;-72
2022/10/27 05:56:44;;;;;;;28.52;22.52;;;;;;;;;;5050630;28;20424;-72
2022/10/27 05:59:48;;;;;;;27.17;19.35;;;;;;;;;;5050643;28;20048;-72
2022/10/27 06:02:55;;;;;;;32.05;20.48;;;;;;;;;;5050595;28;20059;-72
2022/10/27 06:06:02;;;;;;;23.08;16.52;;;;;;;;;;5049936;28;20044;-72
2022/10/27 06:09:07;;;;;;;21.35;16.10;;;;;;;;;;5050662;28;20044;-72
2022/10/27 06:12:12;;;;;;;27.35;18.95;;;;;;;;;;5054300;28;20056;-72
2022/10/27 06:15:16;;;;;;;33.88;20.38;;;;;;;;;;5054331;28;20040;-73
2022/10/27 06:18:20;;;;;;;28.73;20.60;;;;;;;;;;5054258;28;20044;-72
2022/10/27 06:21:25;;;;;;;32.95;20.17;;;;;;;;;;5065099;28;20052;-73
2022/10/27 06:24:29;;;;;;;69.15;24.80;;;;;;;;;;5054134;28;20423;-73
2022/10/27 06:27:34;;;;;;;76.18;26.25;;;;;;;;;;5054056;28;20040;-73
2022/10/27 06:30:38;;;;;;;62.45;26.08;;;;;;;;;;5053760;28;20056;-73
2022/10/27 06:33:42;;;;;;;134.35;28.65;;;;;;;;;;5054097;28;20036;-74
2022/10/27 06:36:47;;;;;;;111.18;29.30;;;;;;;;;;5054144;28;20048;-74
2022/10/27 06:39:54;;;;;;;118.25;30.50;;;;;;;;;;5053176;28;20044;-75
2022/10/27 06:42:59;;;;;;;103.32;33.53;;;;;;;;;;5053264;28;20036;-74
2022/10/27 06:46:03;;;;;;;119.47;34.80;;;;;;;;;;5053555;28;20535;-75
2022/10/27 06:49:08;;;;;;;109.25;33.03;;;;;;;;;;5053764;28;20040;-73
2022/10/27 06:52:12;;;;;;;138.23;34.13;;;;;;;;;;5053955;28;20063;-74
2022/10/27 06:55:17;;;;;;;108.50;31.90;;;;;;;;;;5053601;28;20044;-73
2022/10/27 06:58:21;;;;;;;102.70;32.53;;;;;;;;;;5053195;28;20534;-73
2022/10/27 07:01:25;;;;;;;109.07;35.15;;;;;;;;;;5053797;28;20048;-74
2022/10/27 07:04:30;;;;;;;224.05;88.18;;;;;;;;;;5053846;28;20511;-73
2022/10/27 07:07:35;;;;;;;288.40;110.43;;;;;;;;;;5053615;28;20044;-74
2022/10/27 07:10:39;;;;;;;317.52;104.55;;;;;;;;;;5053266;28;20060;-71
2022/10/27 07:13:43;;;;;;;388.48;151.68;;;;;;;;;;5053303;28;20055;-74
2022/10/27 07:16:50;;;;;;;276.05;103.28;;;;;;;;;;5053353;28;20048;-75
2022/10/27 07:19:55;;;;;;;184.18;48.58;;;;;;;;;;5053272;28;20408;-73
2022/10/27 07:23:00;;;;;;;135.77;47.47;;;;;;;;;;5052563;28;20040;-73
2022/10/27 07:26:04;;;;;;;162.15;42.70;;;;;;;;;;5053080;28;20075;-73
2022/10/27 07:29:08;;;;;;;103.35;41.50;;;;;;;;;;5051252;28;20040;-72
2022/10/27 07:32:13;;;;;;;121.53;41.65;;;;;;;;;;5040183;28;20076;-74
2022/10/27 07:35:17;;;;;;;129.20;42.78;;;;;;;;;;5051111;28;20052;-74
2022/10/27 07:38:21;;;;;;;106.93;43.08;;;;;;;;;;5052734;28;20047;-73
2022/10/27 07:41:25;;;;;;;116.03;43.58;;;;;;;;;;5052886;28;20048;-74
2022/10/27 07:47:32;;;;;;;97.47;42.28;;;;;;;;;;4946046;23;20060;-66
2022/10/27 07:50:37;;;;;;;96.72;42.45;;;;;;;;;;4916193;29;20047;-69
2022/10/27 07:53:41;;;;;;;90.55;42.53;;;;;;;;;;4916320;29;20051;-68
2022/10/27 07:56:48;;;;;;;94.75;42.33;;;;;;;;;;4916912;29;20047;-68
2022/10/27 07:59:52;;;;;;;95.47;42.47;;;;;;;;;;4916742;29;20055;-69
2022/10/27 08:02:58;;;;;;;121.20;44.45;;;;;;;;;;4916210;29;20044;-68
2022/10/27 08:06:06;;;;;;;100.68;43.63;;;;;;;;;;4915771;29;20063;-67
2022/10/27 08:09:10;;;;;;;97.13;41.40;;;;;;;;;;4916653;29;20621;-69
2022/10/27 08:12:14;;;;;;;94.40;41.42;;;;;;;;;;4926668;29;20059;-68
2022/10/27 08:15:19;;;;;;;93.40;40.05;;;;;;;;;;4916250;29;20051;-68
2022/10/27 08:18:23;;;;;;;96.80;44.92;;;;;;;;;;4916540;29;20047;-71
2022/10/27 08:21:27;;;;;;;98.70;43.85;;;;;;;;;;4916350;29;20051;-67
2022/10/27 08:24:31;;;;;;;88.60;41.60;;;;;;;;;;4916370;29;20052;-69
2022/10/27 08:27:36;;;;;;;94.45;41.35;;;;;;;;;;4916072;29;20071;-73
2022/10/27 08:30:41;;;;;;;82.90;39.97;;;;;;;;;;4915946;29;20059;-66
2022/10/27 08:33:45;;;;;;;102.35;43.85;;;;;;;;;;4914593;29;20055;-69
2022/10/27 08:36:49;;;;;;;82.05;40.15;;;;;;;;;;4915747;29;20067;-69
2022/10/27 08:39:53;;;;;;;85.88;41.05;;;;;;;;;;4915978;29;20043;-70
2022/10/27 08:43:17;;;;;;;74.25;36.92;;;;;;;;;;4915151;29;20055;-67
2022/10/27 08:46:32;;;;;;;76.63;39.65;;;;;;;;;;4916391;29;20055;-71
2022/10/27 08:49:36;;;;;;;69.00;34.28;;;;;;;;;;4915207;29;20495;-68
2022/10/27 08:52:44;;;;;;;86.97;42.25;;;;;;;;;;4915906;29;20059;-69
2022/10/27 08:55:52;;;;;;;85.03;47.65;;;;;;;;;;4914316;29;20055;-68
2022/10/27 08:58:57;;;;;;;87.68;44.45;;;;;;;;;;4915803;29;20052;-67
2022/10/27 09:02:05;;;;;;;99.68;50.50;;;;;;;;;;4914430;29;20043;-68
2022/10/27 09:05:12;;;;;;;90.13;48.97;;;;;;;;;;4915339;29;20408;-67
2022/10/27 09:08:23;;;;;;;87.75;45.42;;;;;;;;;;4914669;29;20507;-67
2022/10/27 09:11:37;;;;;;;89.75;45.33;;;;;;;;;;4915612;29;20059;-70
2022/10/27 09:14:47;;;;;;;70.03;40.78;;;;;;;;;;4914422;29;20047;-69
2022/10/27 09:17:58;;;;;;;77.22;42.05;;;;;;;;;;4915480;29;20047;-67
2022/10/27 09:21:05;;;;;;;90.70;47.80;;;;;;;;;;4915718;29;20047;-71
2022/10/27 09:24:16;;;;;;;112.28;54.60;;;;;;;;;;4915893;29;20526;-68
2022/10/27 09:27:20;;;;;;;107.07;53.55;;;;;;;;;;4915542;29;20035;-71
2022/10/27 09:30:24;;;;;;;84.05;46.92;;;;;;;;;;4915224;29;20058;-73
2022/10/27 09:33:31;;;;;;;90.40;46.20;;;;;;;;;;4915147;29;20051;-69
2022/10/27 09:36:36;;;;;;;79.90;42.58;;;;;;;;;;4915476;29;20054;-71
2022/10/27 09:39:45;;;;;;;86.57;44.78;;;;;;;;;;4916528;29;20482;-69
2022/10/27 09:42:54;;;;;;;85.88;45.88;;;;;;;;;;4914758;29;20043;-71
2022/10/27 09:46:03;;;;;;;81.85;44.10;;;;;;;;;;4919118;29;20051;-69
2022/10/27 09:49:07;;;;;;;84.97;44.55;;;;;;;;;;4921779;29;20534;-70
2022/10/27 09:52:17;;;;;;;82.65;45.85;;;;;;;;;;4921418;29;20062;-68
2022/10/27 09:55:22;;;;;;;85.35;44.30;;;;;;;;;;4921551;29;20051;-69
2022/10/27 09:58:26;;;;;;;84.63;43.58;;;;;;;;;;4921222;29;20051;-70
2022/10/27 10:01:43;;;;;;;78.13;39.97;;;;;;;;;;4922256;29;20063;-71
2022/10/27 10:04:47;;;;;;;79.32;37.60;;;;;;;;;;4921654;29;20507;-70
2022/10/27 10:07:53;;;;;;;74.05;36.47;;;;;;;;;;4921290;29;20533;-70
2022/10/27 10:10:58;;;;;;;74.85;37.70;;;;;;;;;;4921108;29;20506;-68
2022/10/27 10:14:02;;;;;;;68.95;36.47;;;;;;;;;;4921026;29;20055;-70
2022/10/27 10:17:17;;;;;;;66.60;35.30;;;;;;;;;;4920948;29;20047;-70
2022/10/27 10:20:31;;;;;;;73.90;38.83;;;;;;;;;;4921383;29;20514;-68
2022/10/27 10:23:36;;;;;;;75.28;36.20;;;;;;;;;;4921056;29;20047;-69
2022/10/27 10:26:45;;;;;;;69.43;35.47;;;;;;;;;;4919845;29;20047;-68
2022/10/27 10:29:50;;;;;;;68.03;34.13;;;;;;;;;;4920982;29;20051;-69
2022/10/27 10:32:55;;;;;;;84.45;40.50;;;;;;;;;;4921512;29;20055;-68
2022/10/27 10:36:02;;;;;;;74.03;38.47;;;;;;;;;;4921712;29;20047;-70
2022/10/27 10:39:25;;;;;;;76.43;37.13;;;;;;;;;;4921165;29;20050;-68
2022/10/27 10:42:29;;;;;;;60.13;30.60;;;;;;;;;;4921266;29;20051;-66
2022/10/27 10:45:34;;;;;;;70.03;31.73;;;;;;;;;;4920427;29;20051;-68
2022/10/27 10:48:45;;;;;;;50.70;24.15;;;;;;;;;;4919833;29;20054;-75
2022/10/27 10:51:51;;;;;;;43.63;20.75;;;;;;;;;;4921453;29;20063;-69
2022/10/27 10:54:56;;;;;;;47.50;20.50;;;;;;;;;;4921077;29;20403;-69
2022/10/27 10:58:03;;;;;;;51.70;18.95;;;;;;;;;;4917610;29;20063;-67
2022/10/27 11:01:08;;;;;;;45.92;17.67;;;;;;;;;;4917671;29;20047;-68
2022/10/27 11:04:19;;;;;;;55.10;17.38;;;;;;;;;;4917736;29;20408;-68
2022/10/27 11:07:30;;;;;;;53.88;16.70;;;;;;;;;;4916855;29;20388;-68
2022/10/27 11:10:40;;;;;;;39.83;16.83;;;;;;;;;;4917441;29;20055;-69
2022/10/27 11:13:52;;;;;;;39.40;15.07;;;;;;;;;;4917129;29;20067;-69
2022/10/27 11:16:59;;;;;;;55.58;16.30;;;;;;;;;;4917189;29;20047;-68
2022/10/27 11:20:06;;;;;;;36.90;14.95;;;;;;;;;;4917423;29;20499;-69
2022/10/27 11:23:16;;;;;;;54.20;15.18;;;;;;;;;;4917215;29;20047;-67
2022/10/27 11:26:27;;;;;;;44.43;14.97;;;;;;;;;;4917575;29;20043;-69
2022/10/27 11:29:31;;;;;;;42.45;13.43;;;;;;;;;;4917220;29;20272;-69
2022/10/27 11:32:42;;;;;;;31.25;13.02;;;;;;;;;;4917388;29;20051;-69
2022/10/27 11:35:50;;;;;;;34.57;12.40;;;;;;;;;;4917592;29;20395;-68
2022/10/27 11:38:57;;;;;;;;;;;;;;;;;;4916714;29;20292;-69
2022/10/27 11:42:07;;;;;;;35.75;13.65;;;;;;;;;;4916667;29;19918;-69
2022/10/27 11:45:18;;;;;;;24.45;11.95;;;;;;;;;;4916958;29;20063;-68
2022/10/27 11:48:49;;;;;;;34.55;13.50;;;;;;;;;;4915496;29;20051;-69
2022/10/27 11:51:59;;;;;;;35.20;12.75;;;;;;;;;;4915608;29;20051;-69
2022/10/27 11:55:05;;;;;;;40.20;14.30;;;;;;;;;;4916825;29;20071;-69
2022/10/27 11:58:10;;;;;;;33.97;12.48;;;;;;;;;;4915042;29;20055;-68
2022/10/27 12:01:34;;;;;;;34.65;15.27;;;;;;;;;;4914228;29;20051;-68
2022/10/27 12:04:39;;;;;;;48.80;16.65;;;;;;;;;;4915723;29;20043;-69
2022/10/27 12:08:02;;;;;;;43.72;14.98;;;;;;;;;;4915850;29;20072;-69
2022/10/27 12:11:21;;;;;;;44.63;14.57;;;;;;;;;;4916037;29;20067;-69
2022/10/27 12:14:30;;;;;;;38.90;13.82;;;;;;;;;;4916690;29;20047;-70
2022/10/27 12:17:35;;;;;;;36.85;13.63;;;;;;;;;;4915246;29;20047;-70
2022/10/27 12:20:49;;;;;;;40.30;14.60;;;;;;;;;;4916327;29;20396;-69
2022/10/27 12:24:02;;;;;;;31.50;12.05;;;;;;;;;;4916451;29;20063;-70
2022/10/27 12:27:12;;;;;;;28.77;12.63;;;;;;;;;;4915222;29;20047;-67
2022/10/27 12:30:20;;;;;;;26.90;12.73;;;;;;;;;;4915989;29;20392;-69
2022/10/27 12:33:31;;;;;;;30.13;12.80;;;;;;;;;;4915974;29;20054;-68
2022/10/27 12:36:42;;;;;;;30.92;12.57;;;;;;;;;;4915945;29;20047;-69
2022/10/27 12:39:52;;;;;;;33.70;14.10;;;;;;;;;;4916264;29;20067;-68
2022/10/27 12:43:03;;;;;;;37.35;14.15;;;;;;;;;;4916006;29;20196;-67
2022/10/27 12:46:21;;;;;;;44.37;15.80;;;;;;;;;;4915593;29;20043;-68
2022/10/27 12:49:44;;;;;;;49.10;15.68;;;;;;;;;;4916072;29;20648;-69
2022/10/27 12:53:01;;;;;;;40.45;14.80;;;;;;;;;;4915471;29;20515;-68
2022/10/27 12:56:11;;;;;;;35.03;14.65;;;;;;;;;;4915633;29;20055;-68
2022/10/27 12:59:20;;;;;;;42.00;13.93;;;;;;;;;;4915511;29;20256;-67
2022/10/27 13:02:26;;;;;;;44.20;12.63;;;;;;;;;;4915618;29;20511;-66
2022/10/27 13:05:52;;;;;;;45.00;13.00;;;;;;;;;;4915168;29;20055;-66
2022/10/27 13:09:03;;;;;;;34.17;11.65;;;;;;;;;;4915425;29;20046;-67
2022/10/27 13:12:10;;;;;;;36.07;12.80;;;;;;;;;;4903691;29;20055;-67
2022/10/27 13:15:21;;;;;;;44.05;12.55;;;;;;;;;;4915105;29;20043;-67
2022/10/27 13:18:32;;;;;;;52.00;13.37;;;;;;;;;;4915272;29;20055;-67
2022/10/27 13:21:57;;;;;;;52.92;12.77;;;;;;;;;;4915032;29;20770;-67
2022/10/27 13:25:10;;;;;;;49.00;12.98;;;;;;;;;;4915176;29;20368;-68
2022/10/27 13:28:19;;;;;;;45.03;12.80;;;;;;;;;;4915115;29;20055;-66
2022/10/27 13:31:25;;;;;;;34.83;11.77;;;;;;;;;;4915446;29;20059;-65
2022/10/27 13:34:29;;;;;;;35.40;11.63;;;;;;;;;;4914712;29;20080;-67
2022/10/27 13:37:39;;;;;;;26.35;10.13;;;;;;;;;;4915063;29;20573;-69
2022/10/27 13:40:44;;;;;;;25.80;10.60;;;;;;;;;;4917010;29;20055;-71
2022/10/27 13:43:55;;;;;;;34.05;11.38;;;;;;;;;;4915230;29;20666;-71
2022/10/27 13:47:03;;;;;;;37.08;12.70;;;;;;;;;;4915766;29;20052;-72
2022/10/27 13:50:28;;;;;;;30.38;11.90;;;;;;;;;;4916502;29;20059;-71
2022/10/27 13:53:32;;;;;;;34.22;13.57;;;;;;;;;;4915182;29;20063;-70
2022/10/27 13:56:37;;;;;;;52.00;21.88;;;;;;;;;;4914775;29;20055;-68
2022/10/27 13:59:43;;;;;;;43.90;19.48;;;;;;;;;;4914025;29;20051;-70
2022/10/27 14:02:54;;;;;;;41.15;20.42;;;;;;;;;;4914897;29;20047;-75
2022/10/27 14:05:59;;;;;;;48.90;20.77;;;;;;;;;;4915515;29;20047;-71
2022/10/27 14:09:22;;;;;;;46.13;19.60;;;;;;;;;;4903319;29;20059;-69
2022/10/27 14:12:27;;;;;;;52.80;19.10;;;;;;;;;;4914480;29;20162;-68
2022/10/27 14:15:33;;;;;;;35.90;16.90;;;;;;;;;;4915097;29;20515;-69
2022/10/27 14:18:37;;;;;;;30.20;15.18;;;;;;;;;;4914995;29;20075;-69
2022/10/27 14:21:52;;;;;;;44.05;16.52;;;;;;;;;;4914816;29;20047;-67
2022/10/27 14:25:00;;;;;;;39.25;17.48;;;;;;;;;;4914648;29;20507;-68
2022/10/27 14:28:19;;;;;;;36.80;15.88;;;;;;;;;;4914410;29;20047;-68
2022/10/27 14:31:23;;;;;;;46.90;16.45;;;;;;;;;;4914443;29;20047;-67
2022/10/27 14:34:28;;;;;;;48.45;16.95;;;;;;;;;;4917824;29;20071;-69
2022/10/27 14:37:34;;;;;;;36.17;14.38;;;;;;;;;;4917670;29;20608;-69
2022/10/27 14:40:40;;;;;;;34.80;14.70;;;;;;;;;;4917865;29;20157;-70
2022/10/27 14:43:46;;;;;;;50.97;17.08;;;;;;;;;;4917993;29;20047;-69
2022/10/27 14:46:52;;;;;;;35.00;15.63;;;;;;;;;;4917967;29;20055;-68
2022/10/27 14:49:58;;;;;;;34.38;15.43;;;;;;;;;;4916966;29;20063;-68
2022/10/27 14:53:03;;;;;;;32.05;15.88;;;;;;;;;;4918045;29;20055;-67
2022/10/27 14:56:19;;;;;;;46.45;17.52;;;;;;;;;;4917894;29;20047;-71
2022/10/27 14:59:26;;;;;;;41.97;17.67;;;;;;;;;;4917892;29;20060;-71
2022/10/27 15:02:31;;;;;;;48.42;19.52;;;;;;;;;;4917592;29;20503;-71
2022/10/27 15:05:39;;;;;;;41.38;17.63;;;;;;;;;;4917061;29;20605;-69
2022/10/27 15:08:43;;;;;;;41.63;19.23;;;;;;;;;;4917829;29;20043;-70
2022/10/27 15:11:47;;;;;;;41.17;19.00;;;;;;;;;;4916802;29;20060;-72
2022/10/27 15:14:53;;;;;;;31.73;17.42;;;;;;;;;;4918038;29;20372;-67
2022/10/27 15:17:57;;;;;;;31.52;17.35;;;;;;;;;;4916822;29;20047;-70
2022/10/27 15:21:04;;;;;;;32.80;18.00;;;;;;;;;;4917290;29;20051;-70
2022/10/27 15:24:09;;;;;;;48.65;21.05;;;;;;;;;;4917458;29;20055;-71
2022/10/27 15:27:33;;;;;;;52.90;24.70;;;;;;;;;;4918584;29;20051;-71
2022/10/27 15:30:40;;;;;;;48.88;24.20;;;;;;;;;;4917596;29;20047;-72
2022/10/27 15:33:45;;;;;;;41.78;22.15;;;;;;;;;;4916739;29;20051;-69
2022/10/27 15:36:51;;;;;;;39.95;21.27;;;;;;;;;;4917162;29;20080;-75
2022/10/27 15:39:56;;;;;;;41.78;23.40;;;;;;;;;;4917717;29;20074;-69
2022/10/27 15:43:01;;;;;;;40.15;22.27;;;;;;;;;;4918255;29;20043;-71
2022/10/27 15:46:09;;;;;;;40.72;21.70;;;;;;;;;;4915987;29;20071;-70
2022/10/27 15:49:16;;;;;;;38.22;22.50;;;;;;;;;;4916055;29;20440;-73
2022/10/27 15:52:21;;;;;;;39.95;22.77;;;;;;;;;;4916722;29;20515;-70
2022/10/27 15:55:26;;;;;;;35.78;21.70;;;;;;;;;;4917173;29;20106;-70
2022/10/27 15:58:31;;;;;;;47.38;27.83;;;;;;;;;;4916914;29;20396;-70
2022/10/27 16:01:36;;;;;;;50.78;28.33;;;;;;;;;;4917257;29;20047;-72
2022/10/27 16:04:43;;;;;;;53.03;26.38;;;;;;;;;;4916408;29;20043;-72
2022/10/27 16:07:47;;;;;;;43.60;24.10;;;;;;;;;;4916105;29;20050;-70
2022/10/27 16:10:55;;;;;;;39.30;24.90;;;;;;;;;;4916402;29;20455;-69
2022/10/27 16:14:03;;;;;;;41.40;25.67;;;;;;;;;;4916560;29;20392;-69
2022/10/27 16:17:12;;;;;;;46.20;27.05;;;;;;;;;;4916209;29;20400;-69
2022/10/27 16:20:21;;;;;;;52.97;29.58;;;;;;;;;;4915835;29;20055;-69
2022/10/27 16:23:25;;;;;;;56.97;33.78;;;;;;;;;;4915708;29;20043;-69
2022/10/27 16:26:29;;;;;;;52.20;29.38;;;;;;;;;;4915708;29;20054;-69
2022/10/27 16:29:34;;;;;;;58.53;30.75;;;;;;;;;;4916030;29;20043;-72
2022/10/27 16:32:42;;;;;;;59.67;30.80;;;;;;;;;;4915936;29;20055;-71
2022/10/27 16:35:47;;;;;;;63.58;32.60;;;;;;;;;;4915351;29;20051;-72
2022/10/27 16:38:52;;;;;;;55.53;33.92;;;;;;;;;;4915395;29;20043;-69
2022/10/27 16:41:56;;;;;;;64.75;34.63;;;;;;;;;;4915863;29;20066;-70
2022/10/27 16:45:01;;;;;;;73.25;35.38;;;;;;;;;;4915503;29;20047;-70
2022/10/27 16:48:05;;;;;;;67.22;36.55;;;;;;;;;;4914379;29;20043;-70
2022/10/27 16:51:14;;;;;;;70.43;37.08;;;;;;;;;;4915960;29;20054;-69
2022/10/27 16:54:19;;;;;;;88.28;39.53;;;;;;;;;;4914203;29;20047;-69
2022/10/27 16:57:23;;;;;;;66.32;36.10;;;;;;;;;;4915927;29;20051;-69
2022/10/27 17:00:28;;;;;;;78.72;38.83;;;;;;;;;;4915375;29;20059;-69
2022/10/27 17:03:33;;;;;;;68.68;37.47;;;;;;;;;;4915308;29;20059;-69
2022/10/27 17:06:37;;;;;;;88.45;38.97;;;;;;;;;;4915174;29;20506;-69
2022/10/27 17:09:42;;;;;;;72.38;37.97;;;;;;;;;;4915031;29;20043;-69
2022/10/27 17:12:46;;;;;;;84.95;40.97;;;;;;;;;;4914366;29;20063;-69
2022/10/27 17:15:50;;;;;;;71.63;39.47;;;;;;;;;;4915083;29;20039;-69
2022/10/27 17:18:54;;;;;;;88.95;39.03;;;;;;;;;;4914199;29;20071;-69
2022/10/27 17:21:59;;;;;;;88.63;35.45;;;;;;;;;;4914656;29;20055;-70
2022/10/27 17:25:04;;;;;;;89.25;35.95;;;;;;;;;;4914509;29;20058;-69
2022/10/27 17:28:08;;;;;;;81.50;35.75;;;;;;;;;;4913762;29;20067;-69
2022/10/27 17:31:12;;;;;;;82.22;36.42;;;;;;;;;;4913792;29;20051;-70
2022/10/27 17:34:17;;;;;;;75.85;34.42;;;;;;;;;;4914560;29;20055;-69
2022/10/27 17:37:22;;;;;;;91.05;35.38;;;;;;;;;;4912840;29;20035;-69
2022/10/27 17:40:26;;;;;;;80.57;34.20;;;;;;;;;;4914802;29;20072;-70
2022/10/27 17:43:30;;;;;;;99.32;36.42;;;;;;;;;;4913517;29;20056;-69
2022/10/27 17:46:35;;;;;;;72.53;33.97;;;;;;;;;;4914803;29;20043;-70
2022/10/27 17:49:39;;;;;;;82.53;33.92;;;;;;;;;;4913826;29;20063;-70
2022/10/27 17:52:43;;;;;;;94.32;37.10;;;;;;;;;;4914017;29;20063;-70
2022/10/27 17:55:47;;;;;;;87.47;34.47;;;;;;;;;;4914909;29;20403;-70
2022/10/27 17:58:55;;;;;;;73.22;32.50;;;;;;;;;;4913935;29;20416;-70
2022/10/27 18:02:01;;;;;;;70.45;32.08;;;;;;;;;;4914744;29;20048;-70
2022/10/27 18:05:05;;;;;;;89.07;33.92;;;;;;;;;;4914826;29;20051;-70